Time;durP1;ratioP1;P1;durP2;ratioP2;P2;SDS_P1;SDS_P2;PMS_P1;PMS_P2;Temp;Humidity;BMP_temperature;BMP_pressure;BME280_temperature;BME280_humidity;BME280_pressure;Samples;Min_cycle;Max_cycle;Signal;HPM_P1;HPM_P2
2023/12/24 00:01:33;;;;;;;2.25;1.40;;;;;;;;;;5007366;28;20209;-67
2023/12/24 00:04:01;;;;;;;1.23;1.13;;;;;;;;;;5008965;28;20212;-68
2023/12/24 00:06:29;;;;;;;2.67;1.88;;;;;;;;;;5005607;28;20691;-67
2023/12/24 00:08:57;;;;;;;1.98;1.55;;;;;;;;;;4994353;28;20305;-67
2023/12/24 00:11:26;;;;;;;1.75;1.60;;;;;;;;;;5004999;28;20218;-67
2023/12/24 00:13:54;;;;;;;2.55;1.45;;;;;;;;;;4985305;28;20199;-68
2023/12/24 00:16:22;;;;;;;2.25;1.30;;;;;;;;;;4996994;28;20206;-68
2023/12/24 00:18:52;;;;;;;1.35;1.20;;;;;;;;;;5009460;28;20206;-68
2023/12/24 00:21:20;;;;;;;3.10;1.00;;;;;;;;;;5003450;28;20216;-68
2023/12/24 00:23:49;;;;;;;1.20;1.10;;;;;;;;;;5009306;28;20224;-68
2023/12/24 00:26:17;;;;;;;1.20;1.10;;;;;;;;;;4998891;28;20226;-68
2023/12/24 00:28:47;;;;;;;1.13;1.00;;;;;;;;;;4991322;28;20205;-68
2023/12/24 00:31:16;;;;;;;1.13;1.02;;;;;;;;;;4999799;28;20224;-68
2023/12/24 00:33:44;;;;;;;1.70;1.00;;;;;;;;;;4998615;28;20199;-68
2023/12/24 00:36:13;;;;;;;2.97;1.30;;;;;;;;;;4986229;28;20207;-68
2023/12/24 00:38:41;;;;;;;2.50;1.42;;;;;;;;;;4999678;28;20209;-67
2023/12/24 00:41:10;;;;;;;1.92;1.20;;;;;;;;;;4993843;28;20197;-68
2023/12/24 00:43:38;;;;;;;2.22;1.10;;;;;;;;;;5006958;28;20202;-69
2023/12/24 00:46:06;;;;;;;1.75;1.00;;;;;;;;;;4998075;28;20686;-67
2023/12/24 00:48:34;;;;;;;1.10;1.10;;;;;;;;;;4991733;28;20620;-68
2023/12/24 00:51:04;;;;;;;1.70;1.60;;;;;;;;;;5004042;28;20221;-68
2023/12/24 00:53:34;;;;;;;1.90;1.50;;;;;;;;;;4998649;28;20217;-68
2023/12/24 00:56:02;;;;;;;1.00;1.00;;;;;;;;;;5000277;28;20198;-68
2023/12/24 00:58:31;;;;;;;3.95;1.20;;;;;;;;;;4990421;28;20203;-68
2023/12/24 01:01:00;;;;;;;1.63;1.15;;;;;;;;;;4991076;28;20210;-68
2023/12/24 01:03:28;;;;;;;1.52;1.20;;;;;;;;;;4970842;28;20206;-68
2023/12/24 01:05:56;;;;;;;2.30;1.35;;;;;;;;;;4972199;28;20206;-69
2023/12/24 01:08:24;;;;;;;1.13;1.02;;;;;;;;;;5005642;28;20597;-69
2023/12/24 01:10:54;;;;;;;6.10;1.42;;;;;;;;;;5002267;28;20229;-69
2023/12/24 01:13:22;;;;;;;4.57;1.10;;;;;;;;;;4988759;28;20213;-69
2023/12/24 01:15:50;;;;;;;3.28;1.20;;;;;;;;;;4991572;28;20209;-69
2023/12/24 01:18:19;;;;;;;1.55;1.30;;;;;;;;;;4988064;28;20209;-69
2023/12/24 01:20:47;;;;;;;1.50;1.10;;;;;;;;;;4988791;28;20203;-69
2023/12/24 01:23:15;;;;;;;1.77;1.10;;;;;;;;;;4994594;28;20213;-69
2023/12/24 01:25:44;;;;;;;2.60;1.42;;;;;;;;;;4978954;28;20245;-69
2023/12/24 01:28:14;;;;;;;0.90;0.90;;;;;;;;;;4998841;28;20207;-69
2023/12/24 01:30:42;;;;;;;2.05;1.45;;;;;;;;;;4993025;28;20211;-69
2023/12/24 01:33:11;;;;;;;5.38;1.45;;;;;;;;;;4988152;28;20211;-69
2023/12/24 01:35:41;;;;;;;1.75;1.20;;;;;;;;;;4971729;28;20202;-69
2023/12/24 01:38:09;;;;;;;4.05;1.15;;;;;;;;;;4996910;28;20596;-69
2023/12/24 01:40:37;;;;;;;1.60;1.17;;;;;;;;;;5006221;28;20198;-69
2023/12/24 01:43:06;;;;;;;1.17;1.08;;;;;;;;;;5002879;28;20207;-69
2023/12/24 01:45:37;;;;;;;0.80;0.80;;;;;;;;;;5000938;28;20696;-69
2023/12/24 01:48:05;;;;;;;1.10;1.10;;;;;;;;;;4989136;28;20236;-69
2023/12/24 01:50:35;;;;;;;1.20;1.10;;;;;;;;;;4999633;28;20221;-69
2023/12/24 01:53:04;;;;;;;1.75;1.65;;;;;;;;;;5007357;28;20206;-69
2023/12/24 01:55:32;;;;;;;1.13;1.08;;;;;;;;;;4999473;28;20220;-69
2023/12/24 01:58:01;;;;;;;1.88;1.20;;;;;;;;;;4995187;28;20211;-69
2023/12/24 02:00:29;;;;;;;1.42;1.20;;;;;;;;;;4976374;28;20194;-69
2023/12/24 02:02:59;;;;;;;1.88;0.90;;;;;;;;;;5006921;28;20205;-69
2023/12/24 02:05:28;;;;;;;4.65;1.10;;;;;;;;;;4990054;28;20232;-69
2023/12/24 02:07:57;;;;;;;1.20;1.10;;;;;;;;;;4992934;28;20206;-69
2023/12/24 02:10:25;;;;;;;0.90;0.90;;;;;;;;;;5009441;28;20213;-71
2023/12/24 02:12:53;;;;;;;2.00;1.25;;;;;;;;;;4999162;28;20201;-69
2023/12/24 02:15:22;;;;;;;1.65;1.45;;;;;;;;;;4981590;28;20682;-69
2023/12/24 02:17:50;;;;;;;3.65;1.05;;;;;;;;;;4990696;28;20673;-69
2023/12/24 02:20:25;;;;;;;1.15;1.05;;;;;;;;;;5004835;28;20209;-69
2023/12/24 02:22:54;;;;;;;1.10;1.02;;;;;;;;;;4986399;28;20198;-69
2023/12/24 02:25:24;;;;;;;2.00;0.90;;;;;;;;;;4991638;28;20234;-69
2023/12/24 02:27:55;;;;;;;1.55;1.13;;;;;;;;;;4999439;28;20194;-69
2023/12/24 02:30:25;;;;;;;1.92;1.17;;;;;;;;;;5002982;28;20560;-69
2023/12/24 02:32:55;;;;;;;1.95;1.30;;;;;;;;;;4990604;28;20568;-69
2023/12/24 02:35:25;;;;;;;1.30;1.15;;;;;;;;;;4990483;28;20191;-69
2023/12/24 02:37:55;;;;;;;1.00;0.90;;;;;;;;;;5001972;28;20679;-69
2023/12/24 02:40:23;;;;;;;1.08;1.00;;;;;;;;;;4989262;28;20220;-69
2023/12/24 02:42:51;;;;;;;1.20;1.10;;;;;;;;;;5003597;28;20209;-69
2023/12/24 02:45:20;;;;;;;0.80;0.80;;;;;;;;;;4987942;28;20779;-69
2023/12/24 02:47:49;;;;;;;1.10;1.00;;;;;;;;;;4996679;28;20669;-69
2023/12/24 02:50:19;;;;;;;1.83;1.30;;;;;;;;;;4989904;28;20202;-69
2023/12/24 02:52:47;;;;;;;1.90;1.65;;;;;;;;;;4973411;28;20218;-69
2023/12/24 02:55:17;;;;;;;1.30;1.20;;;;;;;;;;4991190;28;20207;-69
2023/12/24 02:57:45;;;;;;;1.10;1.00;;;;;;;;;;5009591;28;20202;-69
2023/12/24 03:00:14;;;;;;;1.05;1.00;;;;;;;;;;4987173;28;20250;-69
2023/12/24 03:02:42;;;;;;;1.80;1.15;;;;;;;;;;4977202;28;20543;-69
2023/12/24 03:05:10;;;;;;;1.35;1.10;;;;;;;;;;4996789;28;20210;-69
2023/12/24 03:07:38;;;;;;;1.90;1.70;;;;;;;;;;4991955;28;20556;-69
2023/12/24 03:10:07;;;;;;;0.90;0.90;;;;;;;;;;4992235;28;20206;-69
2023/12/24 03:12:37;;;;;;;1.30;1.20;;;;;;;;;;5007303;28;20613;-69
2023/12/24 03:15:06;;;;;;;6.07;1.02;;;;;;;;;;5006968;28;20221;-69
2023/12/24 03:17:34;;;;;;;0.85;0.82;;;;;;;;;;5009046;28;20208;-69
2023/12/24 03:20:03;;;;;;;1.65;1.13;;;;;;;;;;5009242;28;20595;-69
2023/12/24 03:22:31;;;;;;;3.95;1.00;;;;;;;;;;4990039;28;20208;-69
2023/12/24 03:25:00;;;;;;;1.20;1.10;;;;;;;;;;4974296;28;20295;-69
2023/12/24 03:27:28;;;;;;;0.95;0.90;;;;;;;;;;4991347;28;20191;-69
2023/12/24 03:29:58;;;;;;;1.15;0.90;;;;;;;;;;4990323;28;20195;-69
2023/12/24 03:32:26;;;;;;;1.30;0.98;;;;;;;;;;4973113;28;20573;-69
2023/12/24 03:34:54;;;;;;;1.45;1.00;;;;;;;;;;5005281;28;20251;-69
2023/12/24 03:37:23;;;;;;;1.20;1.10;;;;;;;;;;4995626;28;20203;-69
2023/12/24 03:39:51;;;;;;;0.70;0.70;;;;;;;;;;4990699;28;20199;-69
2023/12/24 03:42:19;;;;;;;1.10;1.00;;;;;;;;;;4989690;28;20199;-69
2023/12/24 03:44:47;;;;;;;1.95;1.13;;;;;;;;;;4994766;28;20218;-69
2023/12/24 03:47:17;;;;;;;1.63;1.50;;;;;;;;;;4977491;28;20211;-69
2023/12/24 03:49:45;;;;;;;1.30;1.20;;;;;;;;;;5000557;28;20254;-69
2023/12/24 03:52:13;;;;;;;1.92;0.90;;;;;;;;;;4989968;28;20226;-69
2023/12/24 03:54:41;;;;;;;1.27;1.10;;;;;;;;;;5000882;28;20210;-69
2023/12/24 03:57:10;;;;;;;2.65;1.10;;;;;;;;;;4995915;28;20201;-69
2023/12/24 03:59:39;;;;;;;1.80;1.30;;;;;;;;;;4990317;28;20209;-69
2023/12/24 04:02:08;;;;;;;2.70;1.30;;;;;;;;;;4990742;28;20195;-69
2023/12/24 04:04:37;;;;;;;1.50;1.30;;;;;;;;;;4994834;28;20272;-69
2023/12/24 04:07:05;;;;;;;1.50;1.20;;;;;;;;;;4989923;28;20665;-70
2023/12/24 04:09:34;;;;;;;1.40;1.30;;;;;;;;;;4999600;28;20201;-69
2023/12/24 04:12:02;;;;;;;1.20;1.10;;;;;;;;;;5007720;28;20224;-69
2023/12/24 04:14:30;;;;;;;1.00;0.93;;;;;;;;;;4957056;28;20206;-69
2023/12/24 04:17:01;;;;;;;1.13;1.02;;;;;;;;;;4982199;28;20207;-69
2023/12/24 04:19:29;;;;;;;1.00;1.00;;;;;;;;;;4971632;28;20202;-69
2023/12/24 04:21:59;;;;;;;1.00;1.00;;;;;;;;;;4989389;28;20206;-69
2023/12/24 04:24:27;;;;;;;1.90;1.63;;;;;;;;;;5006745;28;20198;-69
2023/12/24 04:26:55;;;;;;;3.22;1.02;;;;;;;;;;4974397;28;20597;-69
2023/12/24 04:29:24;;;;;;;1.10;1.00;;;;;;;;;;4972738;28;20665;-69
2023/12/24 04:31:52;;;;;;;1.20;0.90;;;;;;;;;;4972699;28;20232;-69
2023/12/24 04:34:20;;;;;;;0.80;0.80;;;;;;;;;;4990276;28;20653;-69
2023/12/24 04:36:48;;;;;;;1.23;1.05;;;;;;;;;;4989985;28;20210;-69
2023/12/24 04:39:18;;;;;;;0.82;0.80;;;;;;;;;;4973185;28;20203;-69
2023/12/24 04:41:46;;;;;;;1.60;1.05;;;;;;;;;;5004413;28;20202;-69
2023/12/24 04:44:15;;;;;;;0.95;0.95;;;;;;;;;;4988754;28;20226;-69
2023/12/24 04:46:45;;;;;;;1.20;1.10;;;;;;;;;;5000062;28;20213;-69
2023/12/24 04:49:13;;;;;;;1.23;0.90;;;;;;;;;;4991182;28;20205;-69
2023/12/24 04:51:41;;;;;;;0.80;0.80;;;;;;;;;;4971837;28;20669;-69
2023/12/24 04:54:09;;;;;;;0.98;0.90;;;;;;;;;;5007928;28;20228;-69
2023/12/24 04:56:39;;;;;;;0.80;0.80;;;;;;;;;;4989674;28;20541;-69
2023/12/24 04:59:07;;;;;;;2.25;0.93;;;;;;;;;;4958735;28;20203;-69
2023/12/24 05:01:35;;;;;;;0.90;0.80;;;;;;;;;;4956339;28;20206;-69
2023/12/24 05:04:03;;;;;;;0.95;0.95;;;;;;;;;;4987627;28;20236;-69
2023/12/24 05:06:32;;;;;;;1.13;1.02;;;;;;;;;;4954661;28;20211;-69
2023/12/24 05:09:01;;;;;;;1.08;0.98;;;;;;;;;;4988241;28;20225;-69
2023/12/24 05:11:29;;;;;;;1.00;0.90;;;;;;;;;;4956494;28;20203;-69
2023/12/24 05:13:59;;;;;;;1.27;1.17;;;;;;;;;;4987090;28;20220;-69
2023/12/24 05:16:27;;;;;;;6.15;4.97;;;;;;;;;;4995260;28;20255;-69
2023/12/24 05:18:55;;;;;;;79.03;52.10;;;;;;;;;;4988163;28;20209;-69
2023/12/24 05:21:24;;;;;;;31.38;18.48;;;;;;;;;;5002203;28;20198;-69
2023/12/24 05:23:52;;;;;;;10.82;6.82;;;;;;;;;;4975525;28;20206;-69
2023/12/24 05:26:20;;;;;;;23.15;17.90;;;;;;;;;;4975102;28;20231;-69
2023/12/24 05:28:48;;;;;;;2.53;2.33;;;;;;;;;;5006076;28;20203;-69
2023/12/24 05:31:18;;;;;;;1.98;1.88;;;;;;;;;;4991469;28;20202;-69
2023/12/24 05:33:46;;;;;;;3.22;2.92;;;;;;;;;;4994784;28;20219;-69
2023/12/24 05:36:14;;;;;;;10.20;8.32;;;;;;;;;;4991436;28;20201;-69
2023/12/24 05:38:43;;;;;;;10.00;7.38;;;;;;;;;;5003052;28;20203;-69
2023/12/24 05:41:12;;;;;;;10.38;6.95;;;;;;;;;;5005045;28;20203;-69
2023/12/24 05:43:41;;;;;;;0.93;0.93;;;;;;;;;;4992714;28;20577;-69
2023/12/24 05:46:13;;;;;;;1.17;0.90;;;;;;;;;;4995637;28;20597;-69
2023/12/24 05:48:42;;;;;;;1.30;1.20;;;;;;;;;;4999337;28;20209;-69
2023/12/24 05:51:11;;;;;;;1.83;1.10;;;;;;;;;;4991145;28;20278;-69
2023/12/24 05:53:39;;;;;;;1.00;1.00;;;;;;;;;;4998650;28;20210;-69
2023/12/24 05:56:08;;;;;;;1.10;1.00;;;;;;;;;;4999981;28;20205;-69
2023/12/24 05:58:36;;;;;;;1.23;1.15;;;;;;;;;;4995105;28;20224;-69
2023/12/24 06:01:04;;;;;;;1.40;1.30;;;;;;;;;;5004932;28;20195;-69
2023/12/24 06:03:33;;;;;;;0.80;0.80;;;;;;;;;;4990408;28;20236;-69
2023/12/24 06:06:02;;;;;;;1.10;0.85;;;;;;;;;;4991549;28;20202;-69
2023/12/24 06:08:30;;;;;;;1.00;1.00;;;;;;;;;;4977435;28;20674;-69
2023/12/24 06:10:59;;;;;;;1.13;1.02;;;;;;;;;;4991316;28;20203;-69
2023/12/24 06:13:27;;;;;;;1.25;0.80;;;;;;;;;;4990501;28;20227;-69
2023/12/24 06:15:55;;;;;;;0.80;0.80;;;;;;;;;;4993989;28;20207;-69
2023/12/24 06:18:23;;;;;;;2.25;1.05;;;;;;;;;;4991320;28;20199;-69
2023/12/24 06:20:51;;;;;;;3.05;2.75;;;;;;;;;;5002325;28;20544;-69
2023/12/24 06:23:21;;;;;;;4.10;3.70;;;;;;;;;;4991772;28;20581;-69
2023/12/24 06:25:49;;;;;;;5.82;2.20;;;;;;;;;;4991594;28;20720;-69
2023/12/24 06:28:17;;;;;;;1.20;1.10;;;;;;;;;;5003610;28;20210;-69
2023/12/24 06:30:46;;;;;;;3.65;3.40;;;;;;;;;;5005109;28;20267;-69
2023/12/24 06:33:14;;;;;;;5.05;3.97;;;;;;;;;;4996262;28;20236;-69
2023/12/24 06:35:42;;;;;;;1.92;1.30;;;;;;;;;;4995688;28;20205;-69
2023/12/24 06:38:11;;;;;;;2.75;1.00;;;;;;;;;;5002934;28;20220;-69
2023/12/24 06:40:40;;;;;;;0.90;0.90;;;;;;;;;;5009957;28;20582;-70
2023/12/24 06:43:08;;;;;;;1.42;0.90;;;;;;;;;;5000390;28;20558;-70
2023/12/24 06:45:37;;;;;;;0.73;0.73;;;;;;;;;;4995739;28;20222;-67
2023/12/24 06:48:05;;;;;;;0.75;0.70;;;;;;;;;;4999866;28;20228;-69
2023/12/24 06:50:34;;;;;;;1.08;0.98;;;;;;;;;;4979482;28;20209;-70
2023/12/24 06:53:02;;;;;;;0.93;0.80;;;;;;;;;;5008465;28;20260;-70
2023/12/24 06:55:31;;;;;;;1.40;0.82;;;;;;;;;;4982416;28;20210;-71
2023/12/24 06:58:02;;;;;;;1.02;0.70;;;;;;;;;;5007182;28;20203;-69
2023/12/24 07:00:31;;;;;;;1.70;0.70;;;;;;;;;;4996779;28;20209;-70
2023/12/24 07:02:59;;;;;;;0.60;0.57;;;;;;;;;;4978286;28;20198;-69
2023/12/24 07:05:28;;;;;;;0.63;0.63;;;;;;;;;;5004286;28;20209;-69
2023/12/24 07:07:56;;;;;;;0.70;0.57;;;;;;;;;;4999276;28;20708;-70
2023/12/24 07:10:25;;;;;;;0.70;0.70;;;;;;;;;;5003674;28;20203;-69
2023/12/24 07:12:54;;;;;;;0.60;0.60;;;;;;;;;;4995820;28;20284;-70
2023/12/24 07:15:23;;;;;;;0.70;0.60;;;;;;;;;;4994781;28;20665;-70
2023/12/24 07:17:51;;;;;;;0.50;0.50;;;;;;;;;;5007635;28;20246;-69
2023/12/24 07:20:20;;;;;;;0.95;0.60;;;;;;;;;;5008323;28;20209;-69
2023/12/24 07:22:48;;;;;;;0.60;0.60;;;;;;;;;;5002251;28;20598;-69
2023/12/24 07:25:15;;;;;;;0.50;0.50;;;;;;;;;;5005443;28;20610;-69
2023/12/24 07:27:45;;;;;;;0.50;0.50;;;;;;;;;;5004140;28;20203;-69
2023/12/24 07:30:14;;;;;;;0.50;0.50;;;;;;;;;;4995772;28;20214;-69
2023/12/24 07:32:45;;;;;;;1.10;0.68;;;;;;;;;;5008561;28;20198;-69
2023/12/24 07:35:13;;;;;;;0.60;0.60;;;;;;;;;;5002003;28;20262;-69
2023/12/24 07:37:42;;;;;;;1.00;0.70;;;;;;;;;;4999289;28;20206;-69
2023/12/24 07:40:11;;;;;;;0.50;0.50;;;;;;;;;;4978907;28;20988;-69
2023/12/24 07:42:39;;;;;;;0.60;0.60;;;;;;;;;;4981283;28;20254;-69
2023/12/24 07:45:08;;;;;;;0.60;0.60;;;;;;;;;;4996865;28;20693;-69
2023/12/24 07:47:36;;;;;;;0.60;0.60;;;;;;;;;;5000024;28;20205;-69
2023/12/24 07:50:07;;;;;;;1.08;0.60;;;;;;;;;;5000115;28;20194;-69
2023/12/24 07:52:35;;;;;;;0.50;0.50;;;;;;;;;;4998614;28;20187;-69
2023/12/24 07:55:03;;;;;;;0.50;0.50;;;;;;;;;;4998890;28;20217;-69
2023/12/24 07:57:32;;;;;;;0.60;0.55;;;;;;;;;;4996824;28;20209;-69
2023/12/24 08:00:00;;;;;;;0.55;0.55;;;;;;;;;;4996948;28;20195;-69
2023/12/24 08:02:28;;;;;;;0.70;0.70;;;;;;;;;;4997585;28;20559;-69
2023/12/24 08:04:56;;;;;;;0.60;0.50;;;;;;;;;;5001256;28;20202;-69
2023/12/24 08:07:26;;;;;;;0.60;0.60;;;;;;;;;;5001911;28;20683;-69
2023/12/24 08:09:56;;;;;;;0.70;0.63;;;;;;;;;;4978631;28;20195;-69
2023/12/24 08:12:24;;;;;;;0.60;0.52;;;;;;;;;;4972286;28;20216;-69
2023/12/24 08:14:52;;;;;;;1.45;0.60;;;;;;;;;;4990645;28;20221;-69
2023/12/24 08:17:20;;;;;;;0.60;0.60;;;;;;;;;;4996536;28;20206;-69
2023/12/24 08:19:49;;;;;;;0.50;0.50;;;;;;;;;;4986105;28;20675;-69
2023/12/24 08:22:17;;;;;;;0.70;0.60;;;;;;;;;;4991283;28;20210;-69
2023/12/24 08:24:46;;;;;;;0.50;0.50;;;;;;;;;;5004022;28;20202;-69
2023/12/24 08:27:15;;;;;;;0.60;0.57;;;;;;;;;;5001440;28;20664;-70
2023/12/24 08:29:43;;;;;;;0.90;0.60;;;;;;;;;;4994552;28;20206;-70
2023/12/24 08:32:11;;;;;;;0.93;0.63;;;;;;;;;;4990816;28;20201;-70
2023/12/24 08:34:40;;;;;;;0.50;0.50;;;;;;;;;;4988428;28;20222;-69
2023/12/24 08:37:08;;;;;;;0.88;0.50;;;;;;;;;;4990594;28;20202;-69
2023/12/24 08:39:36;;;;;;;0.50;0.50;;;;;;;;;;4996360;28;20661;-69
2023/12/24 08:42:06;;;;;;;0.60;0.60;;;;;;;;;;4997196;28;20216;-69
2023/12/24 08:44:35;;;;;;;0.55;0.55;;;;;;;;;;4989613;28;20218;-69
2023/12/24 08:47:03;;;;;;;0.70;0.60;;;;;;;;;;4996463;28;20218;-69
2023/12/24 08:49:32;;;;;;;0.77;0.70;;;;;;;;;;5003557;28;20206;-69
2023/12/24 08:52:00;;;;;;;1.85;1.55;;;;;;;;;;4997808;28;20202;-69
2023/12/24 08:54:28;;;;;;;0.82;0.77;;;;;;;;;;5000889;28;20221;-69
2023/12/24 08:56:57;;;;;;;0.95;0.80;;;;;;;;;;5000858;28;20190;-70
2023/12/24 08:59:26;;;;;;;1.60;1.50;;;;;;;;;;4986500;28;20224;-70
2023/12/24 09:01:55;;;;;;;2.78;1.63;;;;;;;;;;4994780;28;20230;-69
2023/12/24 09:04:24;;;;;;;1.45;1.13;;;;;;;;;;4996247;28;20264;-70
2023/12/24 09:06:53;;;;;;;1.55;1.45;;;;;;;;;;4983713;28;20216;-70
2023/12/24 09:09:24;;;;;;;1.20;1.10;;;;;;;;;;5000364;28;20201;-70
2023/12/24 09:11:53;;;;;;;0.90;0.90;;;;;;;;;;5007748;28;20210;-69
2023/12/24 09:14:21;;;;;;;1.90;1.10;;;;;;;;;;4994256;28;20229;-69
2023/12/24 09:16:51;;;;;;;0.90;0.90;;;;;;;;;;5001805;28;20224;-69
2023/12/24 09:19:19;;;;;;;1.00;1.00;;;;;;;;;;4988589;28;20198;-69
2023/12/24 09:21:47;;;;;;;0.60;0.60;;;;;;;;;;5005460;28;20199;-69
2023/12/24 09:24:16;;;;;;;0.73;0.70;;;;;;;;;;4998211;28;20205;-69
2023/12/24 09:26:44;;;;;;;1.02;1.02;;;;;;;;;;4988154;28;20262;-70
2023/12/24 09:29:13;;;;;;;1.10;0.80;;;;;;;;;;4998170;28;20560;-70
2023/12/24 09:31:41;;;;;;;3.83;0.80;;;;;;;;;;4992436;28;20742;-69
2023/12/24 09:34:10;;;;;;;0.90;0.90;;;;;;;;;;5004546;28;20568;-70
2023/12/24 09:36:39;;;;;;;1.42;0.70;;;;;;;;;;4987133;28;20202;-69
2023/12/24 09:39:07;;;;;;;0.60;0.60;;;;;;;;;;5005338;28;20194;-70
2023/12/24 09:41:37;;;;;;;0.60;0.60;;;;;;;;;;4999829;28;20209;-69
2023/12/24 09:44:05;;;;;;;0.60;0.60;;;;;;;;;;5001510;28;20214;-69
2023/12/24 09:46:34;;;;;;;0.60;0.60;;;;;;;;;;5007057;28;20223;-69
2023/12/24 09:49:02;;;;;;;0.88;0.88;;;;;;;;;;5008267;28;20202;-70
2023/12/24 09:51:36;;;;;;;0.77;0.77;;;;;;;;;;4990787;28;20202;-70
2023/12/24 09:54:05;;;;;;;0.75;0.75;;;;;;;;;;4992790;28;20201;-70
2023/12/24 09:56:33;;;;;;;0.75;0.75;;;;;;;;;;4993128;28;20683;-70
2023/12/24 09:59:02;;;;;;;2.67;1.50;;;;;;;;;;4998485;28;20214;-69
2023/12/24 10:01:30;;;;;;;0.70;0.70;;;;;;;;;;5009768;28;20579;-70
2023/12/24 10:03:58;;;;;;;1.60;0.70;;;;;;;;;;4999072;28;20315;-70
2023/12/24 10:06:27;;;;;;;1.17;0.70;;;;;;;;;;4990116;28;20247;-70
2023/12/24 10:08:57;;;;;;;0.60;0.60;;;;;;;;;;4990708;28;20211;-69
2023/12/24 10:11:28;;;;;;;0.88;0.60;;;;;;;;;;5009439;28;20210;-69
2023/12/24 10:13:59;;;;;;;0.70;0.70;;;;;;;;;;4995356;28;20191;-69
2023/12/24 10:16:28;;;;;;;0.80;0.80;;;;;;;;;;5004802;28;20206;-69
2023/12/24 10:18:58;;;;;;;0.60;0.60;;;;;;;;;;5000481;28;20202;-69
2023/12/24 10:21:27;;;;;;;0.80;0.80;;;;;;;;;;5002815;28;20258;-69
2023/12/24 10:24:02;;;;;;;0.60;0.60;;;;;;;;;;5005993;28;20221;-69
2023/12/24 10:26:31;;;;;;;0.70;0.70;;;;;;;;;;4955553;28;20222;-69
2023/12/24 10:29:00;;;;;;;1.05;0.80;;;;;;;;;;4972944;28;20214;-69
2023/12/24 10:31:28;;;;;;;0.50;0.50;;;;;;;;;;4973008;28;20587;-69
2023/12/24 10:33:59;;;;;;;0.75;0.65;;;;;;;;;;4989261;28;20211;-69
2023/12/24 10:36:27;;;;;;;0.65;0.65;;;;;;;;;;4990296;28;20244;-69
2023/12/24 10:38:55;;;;;;;0.60;0.60;;;;;;;;;;4990694;28;20213;-69
2023/12/24 10:41:25;;;;;;;1.50;0.70;;;;;;;;;;4994229;28;20198;-69
2023/12/24 10:43:53;;;;;;;0.70;0.60;;;;;;;;;;4971809;28;20248;-69
2023/12/24 10:46:22;;;;;;;0.50;0.50;;;;;;;;;;4990606;28;20263;-69
2023/12/24 10:48:50;;;;;;;2.90;0.68;;;;;;;;;;4990698;28;20210;-69
2023/12/24 10:51:18;;;;;;;0.70;0.70;;;;;;;;;;4972885;28;20209;-69
2023/12/24 10:53:46;;;;;;;0.95;0.77;;;;;;;;;;4990462;28;20689;-70
2023/12/24 10:56:17;;;;;;;0.70;0.70;;;;;;;;;;4990118;28;20231;-69
2023/12/24 10:58:51;;;;;;;0.77;0.77;;;;;;;;;;4991161;28;20263;-69
2023/12/24 11:01:19;;;;;;;0.90;0.90;;;;;;;;;;4991892;28;20195;-69
2023/12/24 11:03:48;;;;;;;0.90;0.90;;;;;;;;;;4989765;28;20210;-69
2023/12/24 11:06:40;;;;;;;0.60;0.60;;;;;;;;;;4989783;28;20206;-69
2023/12/24 11:09:09;;;;;;;0.60;0.60;;;;;;;;;;4989879;28;20209;-69
2023/12/24 11:11:52;;;;;;;0.70;0.70;;;;;;;;;;5009513;28;20201;-69
2023/12/24 11:14:35;;;;;;;1.42;0.77;;;;;;;;;;5009385;28;20609;-69
2023/12/24 11:17:06;;;;;;;1.77;0.68;;;;;;;;;;5009426;28;20206;-69
2023/12/24 11:19:35;;;;;;;0.60;0.60;;;;;;;;;;5008495;28;20602;-69
2023/12/24 11:22:08;;;;;;;1.23;1.13;;;;;;;;;;5009300;28;20566;-69
2023/12/24 11:24:41;;;;;;;0.60;0.60;;;;;;;;;;5009674;28;20194;-69
2023/12/24 11:27:10;;;;;;;0.60;0.60;;;;;;;;;;5009749;28;20277;-69
2023/12/24 11:29:48;;;;;;;0.60;0.60;;;;;;;;;;5008541;28;20202;-69
2023/12/24 11:32:36;;;;;;;1.65;1.23;;;;;;;;;;4992155;28;20201;-69
2023/12/24 11:35:06;;;;;;;0.70;0.70;;;;;;;;;;5009028;28;20825;-69
2023/12/24 11:37:35;;;;;;;1.85;0.80;;;;;;;;;;5009366;28;20643;-68
2023/12/24 11:40:03;;;;;;;1.08;0.98;;;;;;;;;;5009340;28;20206;-69
2023/12/24 11:42:46;;;;;;;0.82;0.57;;;;;;;;;;5150281;27;20650;-68
2023/12/24 11:45:23;;;;;;;0.70;0.60;;;;;;;;;;5111388;28;20222;-68
2023/12/24 11:47:53;;;;;;;0.77;0.60;;;;;;;;;;5108408;28;20545;-68
2023/12/24 11:50:21;;;;;;;0.80;0.80;;;;;;;;;;5108863;28;20201;-68
2023/12/24 11:52:50;;;;;;;0.70;0.70;;;;;;;;;;5090816;28;20206;-69
2023/12/24 11:55:19;;;;;;;0.60;0.60;;;;;;;;;;5108494;28;20198;-69
2023/12/24 11:57:49;;;;;;;0.60;0.60;;;;;;;;;;5108723;28;20198;-69
2023/12/24 12:00:24;;;;;;;0.50;0.50;;;;;;;;;;5102007;28;20212;-69
2023/12/24 12:02:56;;;;;;;0.73;0.70;;;;;;;;;;5107445;28;20205;-69
2023/12/24 12:05:24;;;;;;;0.60;0.60;;;;;;;;;;5086822;28;20187;-69
2023/12/24 12:07:52;;;;;;;0.60;0.60;;;;;;;;;;5106871;28;20203;-69
2023/12/24 12:10:21;;;;;;;0.73;0.73;;;;;;;;;;5089370;28;20206;-68
2023/12/24 12:12:50;;;;;;;0.77;0.65;;;;;;;;;;5107375;28;20662;-69
2023/12/24 12:15:20;;;;;;;2.15;0.70;;;;;;;;;;5089953;28;20248;-69
2023/12/24 12:17:49;;;;;;;0.75;0.75;;;;;;;;;;5104922;28;20203;-69
2023/12/24 12:20:17;;;;;;;0.52;0.52;;;;;;;;;;5107966;28;20243;-69
2023/12/24 12:22:46;;;;;;;0.50;0.50;;;;;;;;;;5089383;28;20273;-69
2023/12/24 12:25:14;;;;;;;1.88;0.70;;;;;;;;;;5107897;28;20194;-69
2023/12/24 12:27:42;;;;;;;0.50;0.50;;;;;;;;;;5107635;28;20236;-69
2023/12/24 12:30:13;;;;;;;1.65;0.65;;;;;;;;;;5107495;28;20209;-69
2023/12/24 12:32:41;;;;;;;0.98;0.60;;;;;;;;;;5090356;28;20183;-70
2023/12/24 12:35:10;;;;;;;0.60;0.60;;;;;;;;;;5089191;28;20250;-68
2023/12/24 12:37:38;;;;;;;0.88;0.57;;;;;;;;;;5107685;28;20194;-68
2023/12/24 12:40:08;;;;;;;0.52;0.52;;;;;;;;;;5106737;28;20195;-69
2023/12/24 12:42:36;;;;;;;0.57;0.52;;;;;;;;;;5106189;28;20287;-69
2023/12/24 12:45:05;;;;;;;0.95;0.60;;;;;;;;;;5083327;28;20735;-69
2023/12/24 12:47:34;;;;;;;0.50;0.50;;;;;;;;;;5104412;28;20657;-69
2023/12/24 12:50:02;;;;;;;1.35;1.20;;;;;;;;;;5104910;28;20207;-69
2023/12/24 12:52:31;;;;;;;0.70;0.70;;;;;;;;;;5100049;28;20199;-69
2023/12/24 12:55:03;;;;;;;0.50;0.50;;;;;;;;;;5092105;28;20209;-69
2023/12/24 12:57:33;;;;;;;0.60;0.60;;;;;;;;;;5090286;28;20187;-68
2023/12/24 13:00:03;;;;;;;0.60;0.60;;;;;;;;;;5087368;28;20199;-68
2023/12/24 13:02:32;;;;;;;1.73;1.63;;;;;;;;;;5090078;28;20287;-68
2023/12/24 13:05:01;;;;;;;8.75;1.88;;;;;;;;;;5073616;28;20206;-69
2023/12/24 13:07:30;;;;;;;0.60;0.60;;;;;;;;;;5092620;28;20195;-69
2023/12/24 13:09:59;;;;;;;0.65;0.65;;;;;;;;;;5088686;28;20207;-69
2023/12/24 13:12:29;;;;;;;2.10;1.90;;;;;;;;;;5071578;28;20225;-69
2023/12/24 13:14:58;;;;;;;2.45;0.70;;;;;;;;;;5081581;28;20550;-69
2023/12/24 13:17:27;;;;;;;1.63;0.73;;;;;;;;;;5091660;28;20206;-68
2023/12/24 13:19:55;;;;;;;0.98;0.88;;;;;;;;;;5092708;28;20214;-68
2023/12/24 13:22:25;;;;;;;0.68;0.60;;;;;;;;;;5092498;28;20219;-68
2023/12/24 13:24:55;;;;;;;0.60;0.60;;;;;;;;;;5074746;28;20660;-68
2023/12/24 13:27:23;;;;;;;1.77;0.60;;;;;;;;;;5091709;28;20570;-68
2023/12/24 13:29:52;;;;;;;0.80;0.80;;;;;;;;;;5092802;28;20203;-68
2023/12/24 13:32:20;;;;;;;0.60;0.60;;;;;;;;;;5091959;28;20207;-68
2023/12/24 13:34:48;;;;;;;0.50;0.50;;;;;;;;;;5092641;28;20676;-68
2023/12/24 13:37:16;;;;;;;0.50;0.50;;;;;;;;;;5092647;28;20195;-68
2023/12/24 13:39:46;;;;;;;0.60;0.60;;;;;;;;;;5074466;28;20666;-68
2023/12/24 13:42:14;;;;;;;0.70;0.52;;;;;;;;;;5091664;28;20231;-68
2023/12/24 13:44:42;;;;;;;0.50;0.50;;;;;;;;;;5085073;28;20231;-68
2023/12/24 13:47:10;;;;;;;0.50;0.50;;;;;;;;;;5095183;28;20572;-69
2023/12/24 13:49:39;;;;;;;1.55;0.60;;;;;;;;;;5092892;28;20196;-69
2023/12/24 13:52:08;;;;;;;0.70;0.70;;;;;;;;;;5071038;28;20566;-69
2023/12/24 13:54:37;;;;;;;0.70;0.70;;;;;;;;;;5085736;28;20213;-70
2023/12/24 13:57:07;;;;;;;2.00;0.70;;;;;;;;;;5086724;28;20669;-69
2023/12/24 13:59:36;;;;;;;0.70;0.50;;;;;;;;;;5089166;28;20250;-69
2023/12/24 14:02:06;;;;;;;0.60;0.60;;;;;;;;;;5065835;28;20231;-69
2023/12/24 14:04:35;;;;;;;1.00;0.57;;;;;;;;;;5087861;28;20191;-69
2023/12/24 14:07:04;;;;;;;1.45;0.60;;;;;;;;;;5088797;28;20247;-69
2023/12/24 14:09:33;;;;;;;0.57;0.57;;;;;;;;;;5073628;28;20225;-68
2023/12/24 14:12:01;;;;;;;0.60;0.50;;;;;;;;;;5090944;28;20617;-68
2023/12/24 14:14:31;;;;;;;0.60;0.60;;;;;;;;;;5092290;28;20546;-67
2023/12/24 14:16:59;;;;;;;0.60;0.50;;;;;;;;;;5090879;28;20199;-68
2023/12/24 14:19:27;;;;;;;3.50;0.60;;;;;;;;;;5087648;28;20551;-68
2023/12/24 14:21:55;;;;;;;0.80;0.68;;;;;;;;;;5090693;28;20676;-69
2023/12/24 14:24:24;;;;;;;0.82;0.50;;;;;;;;;;5091948;28;20698;-69
2023/12/24 14:26:52;;;;;;;0.60;0.60;;;;;;;;;;5091080;28;20252;-69
2023/12/24 14:29:20;;;;;;;0.68;0.68;;;;;;;;;;5088112;28;20195;-69
2023/12/24 14:31:50;;;;;;;0.65;0.52;;;;;;;;;;5091191;28;20551;-68
2023/12/24 14:34:18;;;;;;;1.75;0.55;;;;;;;;;;5091705;28;20196;-69
2023/12/24 14:36:47;;;;;;;3.25;0.60;;;;;;;;;;5090474;28;20203;-68
2023/12/24 14:39:16;;;;;;;2.75;2.20;;;;;;;;;;5091669;28;20203;-68
2023/12/24 14:41:44;;;;;;;0.65;0.65;;;;;;;;;;5086456;28;20225;-68
2023/12/24 14:44:12;;;;;;;0.70;0.70;;;;;;;;;;5091098;28;20225;-69
2023/12/24 14:46:40;;;;;;;0.70;0.60;;;;;;;;;;5090820;28;20612;-68
2023/12/24 14:49:10;;;;;;;0.60;0.60;;;;;;;;;;5085261;28;20195;-69
2023/12/24 14:51:38;;;;;;;0.70;0.60;;;;;;;;;;5090393;28;20199;-71
2023/12/24 14:54:07;;;;;;;0.90;0.70;;;;;;;;;;5067011;28;20663;-71